sensor_id;sensor_type;location;lat;lon;timestamp;P1;durP1;ratioP1;P2;durP2;ratioP2
33814;SDS011;20121;51.910;8.406;2022-10-22T00:02:23;2.70;;;2.10;;
33814;SDS011;20121;51.910;8.406;2022-10-22T00:04:50;2.35;;;2.15;;
33814;SDS011;20121;51.910;8.406;2022-10-22T00:07:16;3.53;;;2.20;;
33814;SDS011;20121;51.910;8.406;2022-10-22T00:09:43;2.58;;;2.25;;
33814;SDS011;20121;51.910;8.406;2022-10-22T00:12:08;2.90;;;2.07;;
33814;SDS011;20121;51.910;8.406;2022-10-22T00:14:35;4.68;;;2.55;;
33814;SDS011;20121;51.910;8.406;2022-10-22T00:17:01;8.23;;;2.58;;
33814;SDS011;20121;51.910;8.406;2022-10-22T00:19:27;10.40;;;2.70;;
33814;SDS011;20121;51.910;8.406;2022-10-22T00:21:52;3.27;;;2.33;;
33814;SDS011;20121;51.910;8.406;2022-10-22T00:24:18;2.63;;;2.38;;
33814;SDS011;20121;51.910;8.406;2022-10-22T00:26:44;4.83;;;3.23;;
33814;SDS011;20121;51.910;8.406;2022-10-22T00:29:10;1.93;;;1.70;;
33814;SDS011;20121;51.910;8.406;2022-10-22T00:31:36;3.70;;;3.03;;
33814;SDS011;20121;51.910;8.406;2022-10-22T00:34:01;2.43;;;2.20;;
33814;SDS011;20121;51.910;8.406;2022-10-22T00:36:27;3.10;;;2.20;;
33814;SDS011;20121;51.910;8.406;2022-10-22T00:38:53;2.97;;;2.63;;
33814;SDS011;20121;51.910;8.406;2022-10-22T00:41:18;1.97;;;1.80;;
33814;SDS011;20121;51.910;8.406;2022-10-22T00:46:24;2.10;;;2.00;;
33814;SDS011;20121;51.910;8.406;2022-10-22T00:48:50;2.60;;;1.83;;
33814;SDS011;20121;51.910;8.406;2022-10-22T00:51:16;1.50;;;1.40;;
33814;SDS011;20121;51.910;8.406;2022-10-22T00:53:44;6.32;;;2.30;;
33814;SDS011;20121;51.910;8.406;2022-10-22T00:56:14;2.10;;;1.90;;
33814;SDS011;20121;51.910;8.406;2022-10-22T00:58:44;3.77;;;1.90;;
33814;SDS011;20121;51.910;8.406;2022-10-22T01:01:14;2.50;;;2.10;;
33814;SDS011;20121;51.910;8.406;2022-10-22T01:03:43;2.92;;;1.75;;
33814;SDS011;20121;51.910;8.406;2022-10-22T01:06:10;2.50;;;1.60;;
33814;SDS011;20121;51.910;8.406;2022-10-22T01:08:44;2.10;;;1.73;;
33814;SDS011;20121;51.910;8.406;2022-10-22T01:11:14;2.97;;;1.85;;
33814;SDS011;20121;51.910;8.406;2022-10-22T01:19:00;3.03;;;2.55;;
33814;SDS011;20121;51.910;8.406;2022-10-22T01:21:41;2.22;;;2.10;;
33814;SDS011;20121;51.910;8.406;2022-10-22T01:26:59;2.78;;;1.95;;
33814;SDS011;20121;51.910;8.406;2022-10-22T01:30:07;4.55;;;1.73;;
33814;SDS011;20121;51.910;8.406;2022-10-22T01:32:36;1.67;;;1.58;;
33814;SDS011;20121;51.910;8.406;2022-10-22T01:35:08;3.20;;;2.90;;
33814;SDS011;20121;51.910;8.406;2022-10-22T01:37:38;4.28;;;2.65;;
33814;SDS011;20121;51.910;8.406;2022-10-22T01:40:08;2.40;;;2.20;;
33814;SDS011;20121;51.910;8.406;2022-10-22T01:42:35;2.40;;;2.20;;
33814;SDS011;20121;51.910;8.406;2022-10-22T01:45:01;1.93;;;1.80;;
33814;SDS011;20121;51.910;8.406;2022-10-22T01:47:49;8.30;;;1.83;;
33814;SDS011;20121;51.910;8.406;2022-10-22T01:50:31;2.97;;;2.58;;
33814;SDS011;20121;51.910;8.406;2022-10-22T01:55:52;2.60;;;2.40;;
33814;SDS011;20121;51.910;8.406;2022-10-22T02:01:14;2.25;;;2.05;;
33814;SDS011;20121;51.910;8.406;2022-10-22T02:04:16;1.63;;;1.52;;
33814;SDS011;20121;51.910;8.406;2022-10-22T02:06:51;4.18;;;3.78;;
33814;SDS011;20121;51.910;8.406;2022-10-22T02:09:22;2.53;;;2.42;;
33814;SDS011;20121;51.910;8.406;2022-10-22T02:11:50;2.38;;;1.67;;
33814;SDS011;20121;51.910;8.406;2022-10-22T02:14:16;3.03;;;2.17;;
33814;SDS011;20121;51.910;8.406;2022-10-22T02:16:44;2.55;;;1.65;;
33814;SDS011;20121;51.910;8.406;2022-10-22T02:19:46;37.35;;;2.67;;
33814;SDS011;20121;51.910;8.406;2022-10-22T02:22:06;2.33;;;2.00;;
33814;SDS011;20121;51.910;8.406;2022-10-22T02:24:32;2.10;;;1.70;;
33814;SDS011;20121;51.910;8.406;2022-10-22T02:27:08;7.40;;;2.57;;
33814;SDS011;20121;51.910;8.406;2022-10-22T02:29:43;2.13;;;1.92;;
33814;SDS011;20121;51.910;8.406;2022-10-22T02:32:12;1.70;;;1.60;;
33814;SDS011;20121;51.910;8.406;2022-10-22T02:34:42;3.58;;;2.25;;
33814;SDS011;20121;51.910;8.406;2022-10-22T02:37:10;2.45;;;1.95;;
33814;SDS011;20121;51.910;8.406;2022-10-22T02:39:36;1.42;;;1.25;;
33814;SDS011;20121;51.910;8.406;2022-10-22T02:42:03;3.80;;;2.47;;
33814;SDS011;20121;51.910;8.406;2022-10-22T02:44:29;2.77;;;2.53;;
33814;SDS011;20121;51.910;8.406;2022-10-22T02:46:54;1.97;;;1.80;;
33814;SDS011;20121;51.910;8.406;2022-10-22T02:49:20;2.90;;;2.70;;
33814;SDS011;20121;51.910;8.406;2022-10-22T02:51:46;2.13;;;1.97;;
33814;SDS011;20121;51.910;8.406;2022-10-22T02:54:12;3.93;;;1.93;;
33814;SDS011;20121;51.910;8.406;2022-10-22T02:56:37;2.67;;;2.37;;
33814;SDS011;20121;51.910;8.406;2022-10-22T02:59:03;1.83;;;1.63;;
33814;SDS011;20121;51.910;8.406;2022-10-22T03:01:28;1.53;;;1.43;;
33814;SDS011;20121;51.910;8.406;2022-10-22T03:03:54;7.13;;;3.07;;
33814;SDS011;20121;51.910;8.406;2022-10-22T03:06:20;1.60;;;1.50;;
33814;SDS011;20121;51.910;8.406;2022-10-22T03:08:45;1.43;;;1.33;;
33814;SDS011;20121;51.910;8.406;2022-10-22T03:11:11;1.50;;;1.40;;
33814;SDS011;20121;51.910;8.406;2022-10-22T03:13:36;21.97;;;1.60;;
33814;SDS011;20121;51.910;8.406;2022-10-22T03:16:02;1.63;;;1.50;;
33814;SDS011;20121;51.910;8.406;2022-10-22T03:18:28;2.07;;;1.83;;
33814;SDS011;20121;51.910;8.406;2022-10-22T03:20:59;1.87;;;1.77;;
33814;SDS011;20121;51.910;8.406;2022-10-22T03:23:30;5.20;;;2.40;;
33814;SDS011;20121;51.910;8.406;2022-10-22T03:25:56;2.20;;;2.00;;
33814;SDS011;20121;51.910;8.406;2022-10-22T03:28:23;2.67;;;1.95;;
33814;SDS011;20121;51.910;8.406;2022-10-22T03:30:50;2.65;;;2.45;;
33814;SDS011;20121;51.910;8.406;2022-10-22T03:33:16;2.80;;;1.83;;
33814;SDS011;20121;51.910;8.406;2022-10-22T03:35:43;1.40;;;1.30;;
33814;SDS011;20121;51.910;8.406;2022-10-22T03:38:10;1.67;;;1.58;;
33814;SDS011;20121;51.910;8.406;2022-10-22T03:40:37;1.65;;;1.55;;
33814;SDS011;20121;51.910;8.406;2022-10-22T03:43:03;7.43;;;2.22;;
33814;SDS011;20121;51.910;8.406;2022-10-22T03:45:29;1.97;;;1.87;;
33814;SDS011;20121;51.910;8.406;2022-10-22T03:47:54;1.40;;;1.30;;
33814;SDS011;20121;51.910;8.406;2022-10-22T03:50:20;3.20;;;2.70;;
33814;SDS011;20121;51.910;8.406;2022-10-22T03:52:45;1.63;;;1.50;;
33814;SDS011;20121;51.910;8.406;2022-10-22T03:55:11;3.37;;;1.83;;
33814;SDS011;20121;51.910;8.406;2022-10-22T03:57:36;1.90;;;1.30;;
33814;SDS011;20121;51.910;8.406;2022-10-22T04:00:03;1.50;;;1.40;;
33814;SDS011;20121;51.910;8.406;2022-10-22T04:02:29;3.00;;;2.00;;
33814;SDS011;20121;51.910;8.406;2022-10-22T04:04:55;1.93;;;1.37;;
33814;SDS011;20121;51.910;8.406;2022-10-22T04:07:21;2.73;;;2.50;;
33814;SDS011;20121;51.910;8.406;2022-10-22T04:09:46;2.13;;;1.60;;
33814;SDS011;20121;51.910;8.406;2022-10-22T04:12:12;3.87;;;2.37;;
33814;SDS011;20121;51.910;8.406;2022-10-22T04:14:37;2.70;;;2.33;;
33814;SDS011;20121;51.910;8.406;2022-10-22T04:17:03;2.73;;;2.03;;
33814;SDS011;20121;51.910;8.406;2022-10-22T04:19:29;2.70;;;1.20;;
33814;SDS011;20121;51.910;8.406;2022-10-22T04:21:56;2.03;;;1.90;;
33814;SDS011;20121;51.910;8.406;2022-10-22T04:24:23;2.53;;;2.33;;
33814;SDS011;20121;51.910;8.406;2022-10-22T04:26:48;4.10;;;1.90;;
33814;SDS011;20121;51.910;8.406;2022-10-22T04:29:14;2.93;;;2.17;;
33814;SDS011;20121;51.910;8.406;2022-10-22T04:31:40;1.60;;;1.50;;
33814;SDS011;20121;51.910;8.406;2022-10-22T04:34:06;3.17;;;1.80;;
33814;SDS011;20121;51.910;8.406;2022-10-22T04:36:31;2.20;;;1.77;;
33814;SDS011;20121;51.910;8.406;2022-10-22T04:38:59;1.45;;;1.35;;
33814;SDS011;20121;51.910;8.406;2022-10-22T04:41:26;2.15;;;1.95;;
33814;SDS011;20121;51.910;8.406;2022-10-22T04:43:54;11.40;;;2.45;;
33814;SDS011;20121;51.910;8.406;2022-10-22T04:46:20;2.05;;;1.83;;
33814;SDS011;20121;51.910;8.406;2022-10-22T04:48:46;2.72;;;2.35;;
33814;SDS011;20121;51.910;8.406;2022-10-22T04:51:13;2.33;;;2.10;;
33814;SDS011;20121;51.910;8.406;2022-10-22T04:53:41;2.33;;;2.05;;
33814;SDS011;20121;51.910;8.406;2022-10-22T04:58:45;2.50;;;1.95;;
33814;SDS011;20121;51.910;8.406;2022-10-22T05:01:16;1.70;;;1.60;;
33814;SDS011;20121;51.910;8.406;2022-10-22T05:03:43;1.70;;;1.35;;
33814;SDS011;20121;51.910;8.406;2022-10-22T05:06:10;2.25;;;1.90;;
33814;SDS011;20121;51.910;8.406;2022-10-22T05:08:36;3.85;;;1.73;;
33814;SDS011;20121;51.910;8.406;2022-10-22T05:13:44;1.65;;;1.55;;
33814;SDS011;20121;51.910;8.406;2022-10-22T05:16:10;1.30;;;1.20;;
33814;SDS011;20121;51.910;8.406;2022-10-22T05:18:36;2.90;;;1.88;;
33814;SDS011;20121;51.910;8.406;2022-10-22T05:21:03;1.60;;;1.50;;
33814;SDS011;20121;51.910;8.406;2022-10-22T05:23:32;1.65;;;1.55;;
33814;SDS011;20121;51.910;8.406;2022-10-22T05:26:00;1.77;;;1.30;;
33814;SDS011;20121;51.910;8.406;2022-10-22T05:28:26;2.05;;;1.88;;
33814;SDS011;20121;51.910;8.406;2022-10-22T05:30:53;7.80;;;1.80;;
33814;SDS011;20121;51.910;8.406;2022-10-22T05:33:20;1.20;;;1.10;;
33814;SDS011;20121;51.910;8.406;2022-10-22T05:35:49;1.55;;;1.45;;
33814;SDS011;20121;51.910;8.406;2022-10-22T05:38:14;1.30;;;1.00;;
33814;SDS011;20121;51.910;8.406;2022-10-22T05:40:41;4.90;;;1.80;;
33814;SDS011;20121;51.910;8.406;2022-10-22T05:43:06;3.70;;;2.37;;
33814;SDS011;20121;51.910;8.406;2022-10-22T05:45:39;2.10;;;1.53;;
33814;SDS011;20121;51.910;8.406;2022-10-22T05:48:06;3.13;;;1.92;;
33814;SDS011;20121;51.910;8.406;2022-10-22T05:50:36;6.35;;;2.97;;
33814;SDS011;20121;51.910;8.406;2022-10-22T05:53:02;2.25;;;2.08;;
33814;SDS011;20121;51.910;8.406;2022-10-22T05:55:28;2.20;;;2.00;;
33814;SDS011;20121;51.910;8.406;2022-10-22T05:57:54;4.53;;;2.30;;
33814;SDS011;20121;51.910;8.406;2022-10-22T06:00:19;4.63;;;2.10;;
33814;SDS011;20121;51.910;8.406;2022-10-22T06:02:48;2.20;;;1.73;;
33814;SDS011;20121;51.910;8.406;2022-10-22T06:05:14;1.63;;;1.50;;
33814;SDS011;20121;51.910;8.406;2022-10-22T06:07:40;6.80;;;2.30;;
33814;SDS011;20121;51.910;8.406;2022-10-22T06:10:08;1.85;;;1.50;;
33814;SDS011;20121;51.910;8.406;2022-10-22T06:12:45;1.90;;;1.80;;
33814;SDS011;20121;51.910;8.406;2022-10-22T06:15:11;2.38;;;2.17;;
33814;SDS011;20121;51.910;8.406;2022-10-22T06:17:38;11.05;;;4.80;;
33814;SDS011;20121;51.910;8.406;2022-10-22T06:20:04;4.90;;;2.20;;
33814;SDS011;20121;51.910;8.406;2022-10-22T06:22:30;2.28;;;2.08;;
33814;SDS011;20121;51.910;8.406;2022-10-22T06:24:56;2.53;;;2.30;;
33814;SDS011;20121;51.910;8.406;2022-10-22T06:27:21;2.80;;;2.60;;
33814;SDS011;20121;51.910;8.406;2022-10-22T06:29:47;3.10;;;2.30;;
33814;SDS011;20121;51.910;8.406;2022-10-22T06:32:12;2.20;;;2.00;;
33814;SDS011;20121;51.910;8.406;2022-10-22T06:34:38;1.73;;;1.63;;
33814;SDS011;20121;51.910;8.406;2022-10-22T06:37:04;1.83;;;1.73;;
33814;SDS011;20121;51.910;8.406;2022-10-22T06:39:29;1.70;;;1.60;;
33814;SDS011;20121;51.910;8.406;2022-10-22T06:41:55;1.87;;;1.73;;
33814;SDS011;20121;51.910;8.406;2022-10-22T06:44:21;1.37;;;1.27;;
33814;SDS011;20121;51.910;8.406;2022-10-22T06:46:50;11.20;;;2.17;;
33814;SDS011;20121;51.910;8.406;2022-10-22T06:49:17;4.80;;;1.73;;
33814;SDS011;20121;51.910;8.406;2022-10-22T06:51:44;3.28;;;2.40;;
33814;SDS011;20121;51.910;8.406;2022-10-22T06:54:13;3.17;;;2.20;;
33814;SDS011;20121;51.910;8.406;2022-10-22T06:56:39;4.97;;;3.40;;
33814;SDS011;20121;51.910;8.406;2022-10-22T06:59:05;3.37;;;2.70;;
33814;SDS011;20121;51.910;8.406;2022-10-22T07:01:31;3.47;;;2.63;;
33814;SDS011;20121;51.910;8.406;2022-10-22T07:03:58;4.13;;;2.50;;
33814;SDS011;20121;51.910;8.406;2022-10-22T07:06:24;1.80;;;1.70;;
33814;SDS011;20121;51.910;8.406;2022-10-22T07:08:51;2.45;;;2.25;;
33814;SDS011;20121;51.910;8.406;2022-10-22T07:11:19;2.72;;;1.90;;
33814;SDS011;20121;51.910;8.406;2022-10-22T07:13:47;2.85;;;2.10;;
33814;SDS011;20121;51.910;8.406;2022-10-22T07:16:13;2.55;;;2.35;;
33814;SDS011;20121;51.910;8.406;2022-10-22T07:18:40;6.63;;;2.17;;
33814;SDS011;20121;51.910;8.406;2022-10-22T07:21:06;3.70;;;2.15;;
33814;SDS011;20121;51.910;8.406;2022-10-22T07:23:32;2.95;;;2.65;;
33814;SDS011;20121;51.910;8.406;2022-10-22T07:25:59;5.53;;;2.20;;
33814;SDS011;20121;51.910;8.406;2022-10-22T07:28:26;1.83;;;1.73;;
33814;SDS011;20121;51.910;8.406;2022-10-22T07:30:52;2.08;;;1.88;;
33814;SDS011;20121;51.910;8.406;2022-10-22T07:33:18;2.53;;;2.30;;
33814;SDS011;20121;51.910;8.406;2022-10-22T07:35:44;2.30;;;1.65;;
33814;SDS011;20121;51.910;8.406;2022-10-22T07:38:10;9.23;;;2.90;;
33814;SDS011;20121;51.910;8.406;2022-10-22T07:40:36;7.03;;;1.80;;
33814;SDS011;20121;51.910;8.406;2022-10-22T07:43:01;2.17;;;2.00;;
33814;SDS011;20121;51.910;8.406;2022-10-22T07:45:28;3.35;;;2.83;;
33814;SDS011;20121;51.910;8.406;2022-10-22T07:47:53;4.73;;;3.07;;
33814;SDS011;20121;51.910;8.406;2022-10-22T07:50:19;4.00;;;1.80;;
33814;SDS011;20121;51.910;8.406;2022-10-22T07:52:45;3.00;;;1.90;;
33814;SDS011;20121;51.910;8.406;2022-10-22T07:55:11;6.97;;;3.35;;
33814;SDS011;20121;51.910;8.406;2022-10-22T07:57:37;2.15;;;2.05;;
33814;SDS011;20121;51.910;8.406;2022-10-22T08:00:06;6.72;;;2.10;;
33814;SDS011;20121;51.910;8.406;2022-10-22T08:02:33;2.55;;;2.22;;
33814;SDS011;20121;51.910;8.406;2022-10-22T08:04:59;3.27;;;2.63;;
33814;SDS011;20121;51.910;8.406;2022-10-22T08:07:25;4.27;;;3.00;;
33814;SDS011;20121;51.910;8.406;2022-10-22T08:09:51;3.00;;;2.63;;
33814;SDS011;20121;51.910;8.406;2022-10-22T08:12:16;3.73;;;2.63;;
33814;SDS011;20121;51.910;8.406;2022-10-22T08:14:42;4.10;;;2.87;;
33814;SDS011;20121;51.910;8.406;2022-10-22T08:17:08;4.10;;;2.83;;
33814;SDS011;20121;51.910;8.406;2022-10-22T08:19:33;13.83;;;3.30;;
33814;SDS011;20121;51.910;8.406;2022-10-22T08:22:00;3.53;;;2.47;;
33814;SDS011;20121;51.910;8.406;2022-10-22T08:24:26;5.65;;;3.10;;
33814;SDS011;20121;51.910;8.406;2022-10-22T08:26:52;3.20;;;2.80;;
33814;SDS011;20121;51.910;8.406;2022-10-22T08:29:20;3.25;;;2.63;;
33814;SDS011;20121;51.910;8.406;2022-10-22T08:31:47;5.07;;;3.17;;
33814;SDS011;20121;51.910;8.406;2022-10-22T08:34:13;3.85;;;3.03;;
33814;SDS011;20121;51.910;8.406;2022-10-22T08:36:39;3.43;;;3.10;;
33814;SDS011;20121;51.910;8.406;2022-10-22T08:39:04;5.00;;;2.53;;
33814;SDS011;20121;51.910;8.406;2022-10-22T08:41:30;4.27;;;2.87;;
33814;SDS011;20121;51.910;8.406;2022-10-22T08:49:20;4.40;;;3.20;;
33814;SDS011;20121;51.910;8.406;2022-10-22T08:51:48;2.72;;;2.53;;
33814;SDS011;20121;51.910;8.406;2022-10-22T08:54:26;5.25;;;3.10;;
33814;SDS011;20121;51.910;8.406;2022-10-22T08:57:23;4.68;;;3.40;;
33814;SDS011;20121;51.910;8.406;2022-10-22T09:08:24;3.88;;;3.25;;
33814;SDS011;20121;51.910;8.406;2022-10-22T09:11:03;4.93;;;3.90;;
33814;SDS011;20121;51.910;8.406;2022-10-22T09:13:36;7.30;;;3.75;;
33814;SDS011;20121;51.910;8.406;2022-10-22T09:21:55;7.15;;;3.78;;
33814;SDS011;20121;51.910;8.406;2022-10-22T09:24:37;3.20;;;2.63;;
33814;SDS011;20121;51.910;8.406;2022-10-22T09:27:15;4.25;;;2.42;;
33814;SDS011;20121;51.910;8.406;2022-10-22T09:29:43;3.00;;;2.53;;
33814;SDS011;20121;51.910;8.406;2022-10-22T09:32:11;2.30;;;2.10;;
33814;SDS011;20121;51.910;8.406;2022-10-22T09:34:37;6.57;;;1.63;;
33814;SDS011;20121;51.910;8.406;2022-10-22T09:37:06;4.60;;;2.13;;
33814;SDS011;20121;51.910;8.406;2022-10-22T09:39:35;4.15;;;2.22;;
33814;SDS011;20121;51.910;8.406;2022-10-22T09:42:07;1.95;;;1.40;;
33814;SDS011;20121;51.910;8.406;2022-10-22T09:44:36;2.20;;;2.00;;
33814;SDS011;20121;51.910;8.406;2022-10-22T09:47:06;1.77;;;1.50;;
33814;SDS011;20121;51.910;8.406;2022-10-22T09:52:37;1.50;;;1.40;;
33814;SDS011;20121;51.910;8.406;2022-10-22T09:55:11;1.70;;;1.40;;
33814;SDS011;20121;51.910;8.406;2022-10-22T09:57:41;1.50;;;1.13;;
33814;SDS011;20121;51.910;8.406;2022-10-22T10:00:08;2.10;;;1.10;;
33814;SDS011;20121;51.910;8.406;2022-10-22T10:02:35;2.75;;;1.13;;
33814;SDS011;20121;51.910;8.406;2022-10-22T10:05:04;1.05;;;0.95;;
33814;SDS011;20121;51.910;8.406;2022-10-22T10:07:31;2.25;;;1.08;;
33814;SDS011;20121;51.910;8.406;2022-10-22T10:09:58;1.83;;;1.40;;
33814;SDS011;20121;51.910;8.406;2022-10-22T10:20:12;5.38;;;1.30;;
33814;SDS011;20121;51.910;8.406;2022-10-22T10:28:15;7.45;;;1.00;;
33814;SDS011;20121;51.910;8.406;2022-10-22T10:36:08;2.40;;;0.98;;
33814;SDS011;20121;51.910;8.406;2022-10-22T10:38:50;2.88;;;1.23;;
33814;SDS011;20121;51.910;8.406;2022-10-22T10:46:58;1.15;;;1.00;;
33814;SDS011;20121;51.910;8.406;2022-10-22T10:49:30;1.75;;;1.50;;
33814;SDS011;20121;51.910;8.406;2022-10-22T10:54:48;1.40;;;1.30;;
33814;SDS011;20121;51.910;8.406;2022-10-22T11:00:18;1.45;;;1.05;;
33814;SDS011;20121;51.910;8.406;2022-10-22T11:10:53;1.42;;;0.80;;
33814;SDS011;20121;51.910;8.406;2022-10-22T11:13:29;3.70;;;1.73;;
33814;SDS011;20121;51.910;8.406;2022-10-22T11:16:03;1.88;;;1.30;;
33814;SDS011;20121;51.910;8.406;2022-10-22T11:18:36;7.00;;;1.67;;
33814;SDS011;20121;51.910;8.406;2022-10-22T11:21:16;0.98;;;0.88;;
33814;SDS011;20121;51.910;8.406;2022-10-22T11:24:11;2.08;;;1.55;;
33814;SDS011;20121;51.910;8.406;2022-10-22T11:29:19;1.80;;;1.58;;
33814;SDS011;20121;51.910;8.406;2022-10-22T11:31:48;3.67;;;2.03;;
33814;SDS011;20121;51.910;8.406;2022-10-22T11:34:20;4.85;;;2.00;;
33814;SDS011;20121;51.910;8.406;2022-10-22T11:36:59;3.05;;;1.60;;
33814;SDS011;20121;51.910;8.406;2022-10-22T11:39:38;5.78;;;1.58;;
33814;SDS011;20121;51.910;8.406;2022-10-22T11:42:11;1.80;;;1.40;;
33814;SDS011;20121;51.910;8.406;2022-10-22T11:44:57;5.93;;;2.13;;
33814;SDS011;20121;51.910;8.406;2022-10-22T11:47:28;1.42;;;1.33;;
33814;SDS011;20121;51.910;8.406;2022-10-22T11:50:16;3.58;;;1.90;;
33814;SDS011;20121;51.910;8.406;2022-10-22T11:55:32;1.50;;;1.23;;
33814;SDS011;20121;51.910;8.406;2022-10-22T11:58:29;1.30;;;1.20;;
33814;SDS011;20121;51.910;8.406;2022-10-22T12:00:55;3.28;;;1.90;;
33814;SDS011;20121;51.910;8.406;2022-10-22T12:08:44;1.50;;;1.40;;
33814;SDS011;20121;51.910;8.406;2022-10-22T12:11:14;1.88;;;0.98;;
33814;SDS011;20121;51.910;8.406;2022-10-22T12:16:43;2.55;;;1.30;;
33814;SDS011;20121;51.910;8.406;2022-10-22T12:19:14;2.90;;;1.08;;
33814;SDS011;20121;51.910;8.406;2022-10-22T12:21:44;5.85;;;1.45;;
33814;SDS011;20121;51.910;8.406;2022-10-22T12:24:13;4.72;;;1.40;;
33814;SDS011;20121;51.910;8.406;2022-10-22T12:26:41;1.33;;;1.08;;
33814;SDS011;20121;51.910;8.406;2022-10-22T12:29:12;1.60;;;1.30;;
33814;SDS011;20121;51.910;8.406;2022-10-22T12:31:40;1.38;;;1.10;;
33814;SDS011;20121;51.910;8.406;2022-10-22T12:34:19;2.47;;;1.88;;
33814;SDS011;20121;51.910;8.406;2022-10-22T12:36:47;1.65;;;1.23;;
33814;SDS011;20121;51.910;8.406;2022-10-22T12:39:15;1.45;;;1.35;;
33814;SDS011;20121;51.910;8.406;2022-10-22T12:41:43;1.75;;;1.27;;
33814;SDS011;20121;51.910;8.406;2022-10-22T12:44:10;3.07;;;1.40;;
33814;SDS011;20121;51.910;8.406;2022-10-22T12:46:40;4.53;;;1.70;;
33814;SDS011;20121;51.910;8.406;2022-10-22T12:49:14;1.27;;;1.15;;
33814;SDS011;20121;51.910;8.406;2022-10-22T12:51:44;4.35;;;1.30;;
33814;SDS011;20121;51.910;8.406;2022-10-22T12:56:52;3.33;;;1.65;;
33814;SDS011;20121;51.910;8.406;2022-10-22T12:59:53;2.00;;;1.27;;
33814;SDS011;20121;51.910;8.406;2022-10-22T13:02:25;11.38;;;2.42;;
33814;SDS011;20121;51.910;8.406;2022-10-22T13:05:09;21.25;;;1.52;;
33814;SDS011;20121;51.910;8.406;2022-10-22T13:08:00;1.23;;;0.80;;
33814;SDS011;20121;51.910;8.406;2022-10-22T13:10:48;1.42;;;0.85;;
33814;SDS011;20121;51.910;8.406;2022-10-22T13:13:29;0.75;;;0.75;;
33814;SDS011;20121;51.910;8.406;2022-10-22T13:16:19;2.75;;;1.10;;
33814;SDS011;20121;51.910;8.406;2022-10-22T13:18:48;1.95;;;1.10;;
33814;SDS011;20121;51.910;8.406;2022-10-22T13:21:26;2.08;;;1.10;;
33814;SDS011;20121;51.910;8.406;2022-10-22T13:24:02;3.65;;;1.33;;
33814;SDS011;20121;51.910;8.406;2022-10-22T13:26:47;2.90;;;1.25;;
33814;SDS011;20121;51.910;8.406;2022-10-22T13:29:18;3.47;;;1.33;;
33814;SDS011;20121;51.910;8.406;2022-10-22T13:31:50;0.90;;;0.80;;
33814;SDS011;20121;51.910;8.406;2022-10-22T13:34:21;1.42;;;0.82;;
33814;SDS011;20121;51.910;8.406;2022-10-22T13:36:49;1.73;;;1.00;;
33814;SDS011;20121;51.910;8.406;2022-10-22T13:39:18;0.90;;;0.60;;
33814;SDS011;20121;51.910;8.406;2022-10-22T13:41:46;0.80;;;0.80;;
33814;SDS011;20121;51.910;8.406;2022-10-22T13:44:14;2.45;;;0.82;;
33814;SDS011;20121;51.910;8.406;2022-10-22T13:46:40;4.32;;;2.25;;
33814;SDS011;20121;51.910;8.406;2022-10-22T13:49:14;3.67;;;1.05;;
33814;SDS011;20121;51.910;8.406;2022-10-22T13:51:42;4.60;;;0.90;;
33814;SDS011;20121;51.910;8.406;2022-10-22T13:54:09;1.88;;;1.15;;
33814;SDS011;20121;51.910;8.406;2022-10-22T13:56:39;2.05;;;0.80;;
33814;SDS011;20121;51.910;8.406;2022-10-22T13:59:05;3.43;;;0.90;;
33814;SDS011;20121;51.910;8.406;2022-10-22T14:01:31;5.13;;;0.77;;
33814;SDS011;20121;51.910;8.406;2022-10-22T14:03:57;1.13;;;0.90;;
33814;SDS011;20121;51.910;8.406;2022-10-22T14:06:26;4.00;;;1.13;;
33814;SDS011;20121;51.910;8.406;2022-10-22T14:09:02;1.20;;;0.90;;
33814;SDS011;20121;51.910;8.406;2022-10-22T14:11:30;1.60;;;0.77;;
33814;SDS011;20121;51.910;8.406;2022-10-22T14:13:56;0.70;;;0.70;;
33814;SDS011;20121;51.910;8.406;2022-10-22T14:16:24;0.70;;;0.60;;
33814;SDS011;20121;51.910;8.406;2022-10-22T14:18:51;1.30;;;0.85;;
33814;SDS011;20121;51.910;8.406;2022-10-22T14:21:18;1.15;;;0.80;;
33814;SDS011;20121;51.910;8.406;2022-10-22T14:23:45;0.90;;;0.70;;
33814;SDS011;20121;51.910;8.406;2022-10-22T14:26:22;1.00;;;0.90;;
33814;SDS011;20121;51.910;8.406;2022-10-22T14:28:52;1.55;;;1.10;;
33814;SDS011;20121;51.910;8.406;2022-10-22T14:31:18;1.00;;;0.80;;
33814;SDS011;20121;51.910;8.406;2022-10-22T14:33:44;1.20;;;0.67;;
33814;SDS011;20121;51.910;8.406;2022-10-22T14:36:13;0.70;;;0.50;;
33814;SDS011;20121;51.910;8.406;2022-10-22T14:38:41;3.70;;;0.90;;
33814;SDS011;20121;51.910;8.406;2022-10-22T14:41:28;1.13;;;0.70;;
33814;SDS011;20121;51.910;8.406;2022-10-22T14:43:53;0.85;;;0.85;;
33814;SDS011;20121;51.910;8.406;2022-10-22T14:46:19;1.70;;;1.05;;
33814;SDS011;20121;51.910;8.406;2022-10-22T14:48:45;2.08;;;1.00;;
33814;SDS011;20121;51.910;8.406;2022-10-22T14:51:13;0.80;;;0.80;;
33814;SDS011;20121;51.910;8.406;2022-10-22T14:53:40;8.77;;;1.00;;
33814;SDS011;20121;51.910;8.406;2022-10-22T14:56:08;8.43;;;1.27;;
33814;SDS011;20121;51.910;8.406;2022-10-22T14:58:38;3.25;;;0.88;;
33814;SDS011;20121;51.910;8.406;2022-10-22T15:01:04;1.42;;;0.80;;
33814;SDS011;20121;51.910;8.406;2022-10-22T15:03:30;1.95;;;1.10;;
33814;SDS011;20121;51.910;8.406;2022-10-22T15:05:56;0.80;;;0.80;;
33814;SDS011;20121;51.910;8.406;2022-10-22T15:08:21;9.80;;;1.23;;
33814;SDS011;20121;51.910;8.406;2022-10-22T15:11:01;1.13;;;0.75;;
33814;SDS011;20121;51.910;8.406;2022-10-22T15:13:28;1.10;;;0.85;;
33814;SDS011;20121;51.910;8.406;2022-10-22T15:15:55;0.80;;;0.80;;
33814;SDS011;20121;51.910;8.406;2022-10-22T15:18:22;1.17;;;0.80;;
33814;SDS011;20121;51.910;8.406;2022-10-22T15:20:54;0.80;;;0.65;;
33814;SDS011;20121;51.910;8.406;2022-10-22T15:23:24;0.88;;;0.77;;
33814;SDS011;20121;51.910;8.406;2022-10-22T15:25:51;0.70;;;0.70;;
33814;SDS011;20121;51.910;8.406;2022-10-22T15:28:16;0.90;;;0.80;;
33814;SDS011;20121;51.910;8.406;2022-10-22T15:30:42;2.00;;;0.97;;
33814;SDS011;20121;51.910;8.406;2022-10-22T15:33:08;0.93;;;0.80;;
33814;SDS011;20121;51.910;8.406;2022-10-22T15:35:34;2.67;;;1.23;;
33814;SDS011;20121;51.910;8.406;2022-10-22T15:38:00;2.07;;;0.80;;
33814;SDS011;20121;51.910;8.406;2022-10-22T15:40:26;0.90;;;0.73;;
33814;SDS011;20121;51.910;8.406;2022-10-22T15:42:51;1.87;;;0.70;;
33814;SDS011;20121;51.910;8.406;2022-10-22T15:45:17;2.57;;;0.87;;
33814;SDS011;20121;51.910;8.406;2022-10-22T15:47:45;1.25;;;0.80;;
33814;SDS011;20121;51.910;8.406;2022-10-22T15:50:12;1.33;;;0.77;;
33814;SDS011;20121;51.910;8.406;2022-10-22T15:52:37;5.00;;;1.37;;
33814;SDS011;20121;51.910;8.406;2022-10-22T15:55:03;1.33;;;0.70;;
33814;SDS011;20121;51.910;8.406;2022-10-22T15:57:34;1.08;;;0.80;;
33814;SDS011;20121;51.910;8.406;2022-10-22T16:00:03;2.75;;;1.13;;
33814;SDS011;20121;51.910;8.406;2022-10-22T16:02:29;1.27;;;0.80;;
33814;SDS011;20121;51.910;8.406;2022-10-22T16:04:55;0.87;;;0.83;;
33814;SDS011;20121;51.910;8.406;2022-10-22T16:07:21;2.50;;;0.97;;
33814;SDS011;20121;51.910;8.406;2022-10-22T16:09:46;1.00;;;0.90;;
33814;SDS011;20121;51.910;8.406;2022-10-22T16:12:12;2.70;;;1.33;;
33814;SDS011;20121;51.910;8.406;2022-10-22T16:14:38;0.70;;;0.60;;
33814;SDS011;20121;51.910;8.406;2022-10-22T16:17:03;0.80;;;0.70;;
33814;SDS011;20121;51.910;8.406;2022-10-22T16:19:29;2.50;;;0.97;;
33814;SDS011;20121;51.910;8.406;2022-10-22T16:21:55;3.60;;;1.20;;
33814;SDS011;20121;51.910;8.406;2022-10-22T16:24:21;1.00;;;0.85;;
33814;SDS011;20121;51.910;8.406;2022-10-22T16:26:47;2.65;;;1.10;;
33814;SDS011;20121;51.910;8.406;2022-10-22T16:29:14;0.70;;;0.65;;
33814;SDS011;20121;51.910;8.406;2022-10-22T16:31:40;0.70;;;0.65;;
33814;SDS011;20121;51.910;8.406;2022-10-22T16:34:07;5.13;;;1.60;;
33814;SDS011;20121;51.910;8.406;2022-10-22T16:36:33;1.00;;;0.87;;
33814;SDS011;20121;51.910;8.406;2022-10-22T16:39:00;2.25;;;1.05;;